Latest Weather Observations for Viewbank

IDV60801

Issued at 9:31 pm EDT Sunday 21 December 2014 (issued every 30 minutes, with the page automatically refreshed every 10 minutes)

About weather observations | Map of weather stations | Latest weather observations for VIC | Other Formats
Station Details ID: 086068 Name: VIEWBANK Lat: -37.74 Lon: 145.10 Height: 66.1 m
Data from the previous 72 hours. | See also: Recent months at Viewbank
Date/Time
EDT
Temp
°C
App
Temp
°C
Dew
Point
Rel
Hum
%
Delta-T
°C
Wind Press
QNH
hPa
Press
MSL
hPa
Rain
since 9 am
mm
Dir
 
Spd
km/h
Gust
km/h
Spd
kts
Gust
kts
21/09:30pm 25.3 22.9 10.0 38 8.5 SSW 13 20 7 11 1012.7 1012.5 0.0
21/09:00pm 25.7 23.5 10.7 39 8.4 S 13 24 7 13 1012.0 1011.9 0.0
21/08:30pm 27.0 24.1 9.8 34 9.6 S 15 24 8 13 1011.5 1011.4 0.0
21/08:00pm 28.3 26.5 10.9 34 9.9 S 11 19 6 10 1011.0 1010.9 0.0
21/07:30pm 29.9 28.6 11.4 32 10.7 SE 9 13 5 7 1010.7 1010.6 0.0
21/07:00pm 29.7 28.0 11.2 31 10.7 SSE 11 22 6 12 1010.5 1010.4 0.0
21/06:30pm 31.1 28.7 11.5 30 11.4 S 15 24 8 13 1010.1 1010.0 0.0
21/06:00pm 32.7 31.0 8.2 22 13.7 S 7 13 4 7 1010.0 1009.9 0.0
21/05:30pm 33.1 30.0 7.1 20 14.3 SW 13 22 7 12 1010.1 1010.0 0.0
21/05:00pm 33.9 31.9 7.0 19 14.8 NNW 7 17 4 9 1010.4 1010.3 0.0
21/04:30pm 34.3 31.8 8.1 20 14.7 SSW 11 20 6 11 1010.6 1010.5 0.0
21/04:00pm 33.1 31.1 7.1 20 14.3 WNW 7 13 4 7 1010.8 1010.7 0.0
21/03:30pm 32.0 29.9 8.3 23 13.2 SSW 9 13 5 7 1011.3 1011.2 0.0
21/03:00pm 33.4 31.6 8.1 21 14.1 ESE 7 15 4 8 1011.7 1011.6 0.0
21/02:30pm 31.8 29.8 8.7 24 12.9 SSE 9 17 5 9 1012.0 1011.9 0.0
21/02:00pm 31.4 28.9 9.6 26 12.4 SSW 13 22 7 12 1012.5 1012.3 0.0
21/01:30pm 32.1 29.6 8.4 23 13.2 SW 11 22 6 12 1012.8 1012.6 0.0
21/01:00pm 31.2 29.0 9.4 26 12.3 ESE 11 17 6 9 1013.2 1013.0 0.0
21/12:30pm 31.3 28.6 8.9 25 12.5 SW 13 22 7 12 1013.5 1013.3 0.0
21/12:00pm 30.2 28.2 10.2 29 11.4 W 11 19 6 10 1013.8 1013.6 0.0
21/11:30am 29.1 28.2 11.2 33 10.3 SE 7 11 4 6 1013.8 1013.6 0.0
21/11:00am 27.0 26.1 11.5 38 8.9 NNW 7 11 4 6 1013.8 1013.6 0.0
21/10:30am 24.9 24.5 12.5 46 7.2 E 6 9 3 5 1014.1 1013.9 0.0
21/10:00am 23.2 22.7 13.7 55 5.5 E 9 15 5 8 1014.2 1014.0 0.0
21/09:30am 21.2 20.9 13.4 61 4.5 ENE 7 11 4 6 1014.8 1014.6 0.0
21/09:00am 18.8 18.5 13.4 71 3.1 NE 7 13 4 7 1014.9 1014.7 0.0
21/08:30am 16.8 15.9 12.7 77 2.3 NE 9 15 5 8 1015.0 1014.8 0.0
21/08:00am 15.5 15.4 13.3 87 1.2 NE 6 11 3 6 1015.0 1014.8 0.0
21/07:30am 13.3 13.1 13.1 99 0.1 ENE 6 7 3 4 1015.6 1015.4 0.0
21/07:00am 12.0 12.6 12.0 100 0.0 CALM 0 0 0 0 1015.4 1015.2 0.0
21/06:30am 11.1 10.3 11.1 100 0.0 ENE 6 9 3 5 1015.4 1015.2 0.0
21/06:00am 11.1 11.4 10.9 99 0.1 CALM 0 0 0 0 1014.8 1014.6 0.0
21/05:30am 11.2 11.5 11.0 99 0.1 CALM 0 0 0 0 1014.7 1014.5 0.0
21/05:00am 11.3 10.5 11.1 99 0.1 NNE 6 7 3 4 1014.3 1014.1 0.0
21/04:30am 11.8 11.2 11.6 99 0.1 N 6 9 3 5 1014.5 1014.3 0.0
21/04:00am 12.2 12.1 12.0 99 0.1 N 4 7 2 4 1014.7 1014.5 0.0
21/03:30am 12.4 13.1 12.2 99 0.1 CALM 0 0 0 0 1014.9 1014.7 0.0
21/03:00am 12.7 13.1 12.5 99 0.1 SSW 2 7 1 4 1015.3 1015.1 0.0
21/02:30am 13.6 14.6 13.3 98 0.2 CALM 0 0 0 0 1015.6 1015.4 0.0
21/02:00am 13.8 14.7 12.9 94 0.5 CALM 0 0 0 0 1015.9 1015.7 0.0
21/01:30am 14.0 14.4 12.4 90 0.9 SSW 2 7 1 4 1016.2 1016.0 0.0
21/01:00am 14.4 15.2 12.4 88 1.1 CALM 0 0 0 0 1016.8 1016.6 0.0
21/12:30am 14.6 14.2 12.3 86 1.3 SSW 6 7 3 4 1017.1 1016.9 0.0
21/12:00am 14.9 15.6 12.2 84 1.5 CALM 0 0 0 0 1017.4 1017.2 0.0
 
Date/Time
EDT
Temp
°C
App
Temp
°C
Dew
Point
Rel
Hum
%
Delta-T
°C
Wind Press
QNH
hPa
Press
MSL
hPa
Rain
since 9 am
mm
Dir
 
Spd
km/h
Gust
km/h
Spd
kts
Gust
kts
20/11:30pm 15.3 14.8 12.1 81 1.7 SSW 6 7 3 4 1017.5 1017.3 0.0
20/11:00pm 15.8 15.3 12.0 78 2.1 S 6 7 3 4 1017.6 1017.4 0.0
20/10:30pm 16.2 15.7 12.0 76 2.3 SSE 6 9 3 5 1017.8 1017.6 0.0
20/10:00pm 16.8 16.1 11.9 73 2.7 S 7 9 4 5 1017.8 1017.6 0.0
20/09:30pm 17.5 16.5 12.2 71 2.9 S 9 19 5 10 1017.4 1017.2 0.0
20/09:00pm 18.2 16.4 12.2 68 3.3 S 13 19 7 10 1017.1 1016.9 0.0
20/08:30pm 18.8 17.2 12.8 68 3.4 SW 13 22 7 12 1017.0 1016.8 0.0
20/08:00pm 19.8 17.8 12.8 64 4.0 SW 15 20 8 11 1016.8 1016.6 0.0
20/07:30pm 21.1 18.7 12.5 58 4.9 SW 17 22 9 12 1016.6 1016.4 0.0
20/07:00pm 22.5 20.3 12.2 52 5.8 SW 15 22 8 12 1016.2 1016.0 0.0
20/06:30pm 22.8 19.1 9.6 43 7.2 SSW 19 26 10 14 1016.0 1015.8 0.0
20/06:00pm 23.8 20.6 8.6 38 8.1 SSW 15 28 8 15 1015.8 1015.6 0.0
20/05:30pm 24.2 20.8 9.0 38 8.2 SSW 17 28 9 15 1015.9 1015.7 0.0
20/05:00pm 24.2 21.0 8.6 37 8.4 SSW 15 26 8 14 1016.0 1015.8 0.0
20/04:30pm 24.7 22.0 9.0 37 8.5 SW 13 22 7 12 1016.2 1016.0 0.0
20/04:00pm 23.6 21.2 8.5 38 8.1 SSW 11 26 6 14 1016.6 1016.4 0.0
20/03:30pm 23.6 20.6 9.2 40 7.8 S 15 24 8 13 1017.1 1016.9 0.0
20/03:00pm 22.6 19.5 9.0 42 7.3 SSW 15 24 8 13 1017.5 1017.3 0.0
20/02:30pm 23.4 21.5 9.0 40 7.8 S 9 20 5 11 1017.8 1017.6 0.0
20/02:00pm 22.2 19.4 8.7 42 7.2 SSW 13 24 7 13 1018.1 1017.9 0.0
20/01:30pm 21.8 19.4 8.7 43 7.0 SSW 11 22 6 12 1018.3 1018.1 0.0
20/01:00pm 21.3 19.0 8.9 45 6.6 SSW 11 19 6 10 1018.6 1018.4 0.0
20/12:30pm 20.6 18.5 8.3 45 6.4 S 9 20 5 11 1018.9 1018.7 0.0
20/12:00pm 20.4 18.4 8.7 47 6.1 W 9 17 5 9 1019.0 1018.8 0.0
20/11:30am 19.7 17.7 8.7 49 5.8 S 9 15 5 8 1019.3 1019.1 0.0
20/11:00am 18.5 15.6 8.2 51 5.3 SSW 13 17 7 9 1019.5 1019.3 0.0
20/10:30am 18.2 15.8 8.7 54 4.9 SW 11 17 6 9 1019.7 1019.5 0.0
20/10:00am 17.6 16.1 9.0 57 4.5 S 7 13 4 7 1019.7 1019.5 0.0
20/09:30am 16.5 14.4 9.7 64 3.6 SW 11 17 6 9 1019.6 1019.4 0.0
20/09:00am 16.0 14.6 9.7 66 3.3 SSW 7 13 4 7 1019.4 1019.2 0.0
20/08:30am 14.7 13.3 8.9 68 3.0 S 6 9 3 5 1019.2 1019.0 0.0
20/08:00am 13.6 13.0 8.9 73 2.4 NNE 2 7 1 4 1018.9 1018.7 0.0
20/07:30am 11.6 11.5 9.5 87 1.1 CALM 0 0 0 0 1018.7 1018.5 0.0
20/07:00am 10.4 10.1 8.8 90 0.8 CALM 0 4 0 2 1018.4 1018.2 0.0
20/06:30am 9.6 8.8 8.2 91 0.7 NNE 2 6 1 3 1018.3 1018.1 0.0
20/06:00am 9.6 8.0 8.2 91 0.7 NNE 6 7 3 4 1018.2 1018.0 0.0
20/05:30am 9.7 8.2 8.5 92 0.6 NNE 6 7 3 4 1018.1 1017.9 0.0
20/05:00am 10.1 9.6 8.0 87 1.0 CALM 0 0 0 0 1018.1 1017.9 0.0
20/04:30am 10.8 10.3 8.0 83 1.4 CALM 0 6 0 3 1017.9 1017.7 0.0
20/04:00am 11.1 9.5 7.8 80 1.6 N 6 7 3 4 1017.9 1017.7 0.0
20/03:30am 11.2 10.5 8.6 84 1.3 NNW 2 7 1 4 1018.0 1017.8 0.0
20/03:00am 11.7 11.2 7.8 77 1.9 CALM 0 0 0 0 1018.2 1018.0 0.0
20/02:30am 12.1 10.8 7.6 74 2.2 SE 4 6 2 3 1018.3 1018.1 0.0
20/02:00am 12.4 11.8 7.3 71 2.5 CALM 0 0 0 0 1018.5 1018.3 0.0
20/01:30am 12.8 12.3 7.7 71 2.5 CALM 0 0 0 0 1018.9 1018.7 0.0
20/01:00am 13.1 12.5 7.3 68 2.8 CALM 0 0 0 0 1019.1 1018.9 0.0
20/12:30am 13.2 12.5 7.0 66 3.0 CALM 0 0 0 0 1019.3 1019.1 0.0
20/12:00am 13.4 12.8 7.2 66 3.0 CALM 0 0 0 0 1019.6 1019.4 0.0
 
Date/Time
EDT
Temp
°C
App
Temp
°C
Dew
Point
Rel
Hum
%
Delta-T
°C
Wind Press
QNH
hPa
Press
MSL
hPa
Rain
since 9 am
mm
Dir
 
Spd
km/h
Gust
km/h
Spd
kts
Gust
kts
19/11:30pm 13.5 12.4 7.1 65 3.1 SE 2 7 1 4 1019.8 1019.6 0.0
19/11:00pm 13.8 11.9 6.9 63 3.3 ESE 6 9 3 5 1020.0 1019.8 0.0
19/10:30pm 13.7 12.5 6.3 61 3.5 SSE 2 6 1 3 1020.0 1019.8 0.0
19/10:00pm 14.3 11.4 6.6 60 3.7 SSW 11 15 6 8 1019.7 1019.5 0.0
19/09:30pm 14.6 11.4 6.7 59 3.8 S 13 20 7 11 1019.7 1019.5 0.0
19/09:00pm 15.0 11.7 6.6 57 4.1 SSW 13 20 7 11 1019.6 1019.4 0.0
19/08:30pm 15.5 11.4 6.2 54 4.5 SSW 17 28 9 15 1019.5 1019.3 0.0
19/08:00pm 16.3 12.2 6.4 52 4.8 SSW 17 24 9 13 1019.3 1019.1 0.0
19/07:30pm 17.3 13.7 6.8 50 5.2 SSW 15 22 8 12 1018.8 1018.6 0.0
19/07:00pm 17.8 13.9 7.2 50 5.3 SSW 17 26 9 14 1018.3 1018.1 0.0
19/06:30pm 18.0 13.7 6.8 48 5.6 S 19 28 10 15 1018.0 1017.8 0.0
19/06:00pm 19.7 16.6 7.1 44 6.4 SSW 13 20 7 11 1017.6 1017.4 0.0
19/05:30pm 20.0 16.4 6.7 42 6.7 SW 15 22 8 12 1017.5 1017.3 0.0
19/05:00pm 19.6 15.0 5.6 40 6.9 SSW 19 28 10 15 1017.5 1017.3 0.0
19/04:30pm 19.9 16.1 5.9 40 7.0 SSW 15 28 8 15 1017.4 1017.2 0.0
19/04:00pm 20.0 16.8 6.7 42 6.7 S 13 22 7 12 1017.3 1017.1 0.0
19/03:30pm 20.3 16.8 7.3 43 6.7 S 15 30 8 16 1017.3 1017.1 0.0
19/03:00pm 19.2 14.9 5.3 40 6.8 S 17 28 9 15 1017.3 1017.1 0.0
19/02:30pm 19.5 15.3 5.9 41 6.7 SW 17 28 9 15 1017.6 1017.4 0.0
19/02:00pm 18.9 15.0 5.4 41 6.6 SSW 15 30 8 16 1017.4 1017.2 0.0
19/01:30pm 18.3 14.0 5.2 42 6.4 SW 17 28 9 15 1017.6 1017.4 0.0
19/01:00pm 18.2 14.8 7.6 50 5.4 S 15 28 8 15 1017.8 1017.6 0.0
19/12:30pm 15.7 11.3 7.2 57 4.2 SSW 20 32 11 17 1017.9 1017.7 0.0
19/12:00pm 16.2 11.7 6.3 52 4.8 SW 19 28 10 15 1017.7 1017.5 0.0
19/11:30am 16.9 12.9 6.7 51 5.0 SSW 17 26 9 14 1017.6 1017.4 0.0
19/11:00am 15.7 11.2 7.0 56 4.3 SW 20 32 11 17 1017.5 1017.3 0.0
19/10:30am 16.1 11.8 7.1 55 4.5 SW 19 28 10 15 1017.3 1017.1 0.0
19/10:00am 15.8 12.1 7.8 59 4.0 SW 17 26 9 14 1016.9 1016.7 0.0
19/09:30am 15.7 11.2 8.7 63 3.6 SW 22 33 12 18 1016.9 1016.7 0.0
19/09:00am 15.4 12.8 9.5 68 3.1 SW 13 22 7 12 1016.6 1016.4 4.2
19/08:30am 14.0 11.3 8.8 71 2.6 WSW 13 19 7 10 1016.5 1016.3 4.2
19/08:00am 12.7 10.1 9.2 79 1.8 WSW 13 22 7 12 1016.2 1016.0 4.2
19/07:30am 11.4 9.1 9.0 85 1.2 WSW 11 17 6 9 1016.0 1015.8 4.2
19/07:00am 10.5 9.0 9.3 92 0.6 W 7 15 4 8 1015.7 1015.5 4.2
19/06:30am 9.6 7.9 8.5 93 0.5 W 7 11 4 6 1015.5 1015.3 4.2
19/06:00am 9.5 7.8 8.3 92 0.6 WNW 7 13 4 7 1015.2 1015.0 4.2
19/05:30am 9.9 7.8 8.3 90 0.8 W 9 15 5 8 1014.9 1014.7 4.2
19/05:00am 10.0 7.9 8.4 90 0.8 W 9 15 5 8 1014.7 1014.5 4.2
19/04:30am 10.4 7.6 8.5 88 0.9 W 13 17 7 9 1014.2 1014.0 4.2
19/04:00am 10.5 8.5 8.6 88 0.9 W 9 13 5 7 1013.8 1013.6 4.2
19/03:30am 10.5 8.1 8.8 89 0.8 W 11 15 6 8 1013.7 1013.5 4.2
19/03:00am 10.7 8.7 8.6 87 1.0 W 9 13 5 7 1013.7 1013.5 4.2
19/02:30am 11.1 8.7 8.5 84 1.3 W 11 19 6 10 1013.6 1013.4 4.2
19/02:00am 11.4 9.0 8.6 83 1.4 W 11 15 6 8 1013.6 1013.4 4.2
19/01:30am 11.7 9.3 8.6 81 1.5 W 11 17 6 9 1013.6 1013.4 4.2
19/01:00am 11.9 9.5 8.6 80 1.6 W 11 17 6 9 1013.6 1013.4 4.2
19/12:30am 12.2 9.4 8.5 78 1.8 W 13 20 7 11 1013.5 1013.3 4.2
19/12:00am 12.3 10.5 9.3 82 1.5 W 9 15 5 8 1013.5 1013.3 4.2
 
Date/Time
EDT
Temp
°C
App
Temp
°C
Dew
Point
Rel
Hum
%
Delta-T
°C
Wind Press
QNH
hPa
Press
MSL
hPa
Rain
since 9 am
mm
Dir
 
Spd
km/h
Gust
km/h
Spd
kts
Gust
kts
18/11:30pm 12.9 11.2 11.3 90 0.8 WSW 11 15 6 8 1013.3 1013.1 4.2
18/11:00pm 14.2 14.4 14.2 100 0.0 N 6 9 3 5 1013.3 1013.1 4.2
18/10:30pm 14.5 15.9 14.3 99 0.1 CALM 0 0 0 0 1013.0 1012.8 3.4
18/10:00pm 14.3 15.6 14.1 99 0.1 CALM 0 0 0 0 1012.7 1012.5 3.4

Other Formats:

Comma delimited format used in spreadsheet applications
http://www.bom.gov.au/fwo/IDV60801/IDV60801.95874.axf

JavaScript Object Notation format (JSON) in row-major order
http://www.bom.gov.au/fwo/IDV60801/IDV60801.95874.json